Time;durP1;ratioP1;P1;durP2;ratioP2;P2;SDS_P1;SDS_P2;PMS_P1;PMS_P2;Temp;Humidity;BMP_temperature;BMP_pressure;BME280_temperature;BME280_humidity;BME280_pressure;Samples;Min_cycle;Max_cycle;Signal;HPM_P1;HPM_P2
2023/01/29 00:01:47;;;;;;;17.05;6.88;;;-0.20;99.90;;;;;;5047664;28;20033;-64
2023/01/29 00:04:13;;;;;;;18.92;7.68;;;-0.20;99.90;;;;;;5049233;28;20433;-63
2023/01/29 00:06:39;;;;;;;16.67;7.20;;;-0.20;99.90;;;;;;5042973;28;20033;-63
2023/01/29 00:09:04;;;;;;;19.33;7.25;;;-0.20;99.90;;;;;;5044650;28;20042;-63
2023/01/29 00:11:30;;;;;;;18.80;7.70;;;-0.20;99.90;;;;;;5037272;28;20033;-62
2023/01/29 00:13:57;;;;;;;17.13;7.30;;;-0.20;99.90;;;;;;5038893;28;20162;-64
2023/01/29 00:16:23;;;;;;;16.58;7.50;;;-0.20;99.90;;;;;;5041476;28;20025;-63
2023/01/29 00:18:48;;;;;;;21.30;7.80;;;-0.20;99.90;;;;;;5032581;28;20036;-63
2023/01/29 00:21:16;;;;;;;15.98;7.43;;;-0.20;99.90;;;;;;5029154;28;20030;-63
2023/01/29 00:23:42;;;;;;;17.05;7.38;;;-0.20;99.90;;;;;;5030248;28;20033;-62
2023/01/29 00:26:09;;;;;;;17.83;7.22;;;-0.20;99.90;;;;;;5030191;28;20486;-63
2023/01/29 00:28:35;;;;;;;17.00;7.35;;;-0.20;99.90;;;;;;5030138;28;20469;-63
2023/01/29 00:31:13;;;;;;;17.30;7.40;;;-0.20;99.90;;;;;;5041157;28;20127;-63
2023/01/29 00:33:39;;;;;;;15.55;7.10;;;-0.30;99.90;;;;;;5039164;28;20032;-62
2023/01/29 00:36:07;;;;;;;17.35;7.43;;;-0.30;99.90;;;;;;5045728;28;20351;-63
2023/01/29 00:38:33;;;;;;;17.45;7.65;;;-0.40;99.90;;;;;;5032725;28;20037;-63
2023/01/29 00:46:38;;;;;;;17.30;7.78;;;-0.50;99.90;;;;;;5044853;28;20031;-63
2023/01/29 00:49:05;;;;;;;15.23;7.57;;;-0.40;99.90;;;;;;5037643;28;20070;-64
2023/01/29 00:51:30;;;;;;;18.80;7.85;;;-0.40;99.90;;;;;;5032392;28;20034;-63
2023/01/29 00:53:57;;;;;;;18.52;7.88;;;-0.40;99.90;;;;;;5028977;28;20026;-63
2023/01/29 00:56:27;;;;;;;18.77;7.60;;;-0.50;99.90;;;;;;5039739;28;20116;-62
2023/01/29 00:58:53;;;;;;;19.65;8.02;;;-0.50;99.90;;;;;;5048768;28;20037;-63
2023/01/29 01:03:04;;;;;;;19.00;7.97;;;-0.50;99.90;;;;;;5038457;28;20017;-63
2023/01/29 01:04:06;;;;;;;18.35;7.70;;;-0.50;99.90;;;;;;5027944;28;20545;-63
2023/01/29 01:06:31;;;;;;;18.48;7.88;;;-0.40;99.90;;;;;;5043362;28;20028;-63
2023/01/29 01:11:41;;;;;;;16.48;7.32;;;-0.50;99.90;;;;;;5029555;28;20087;-62
2023/01/29 01:14:07;;;;;;;18.58;8.00;;;-0.50;99.90;;;;;;5039481;28;20037;-62
2023/01/29 01:16:33;;;;;;;20.10;7.60;;;-0.50;99.90;;;;;;5044202;28;20091;-62
2023/01/29 01:18:58;;;;;;;20.45;7.97;;;-0.50;99.90;;;;;;5039111;28;20489;-62
2023/01/29 01:21:24;;;;;;;17.80;8.20;;;-0.50;99.90;;;;;;5042006;28;20033;-63
2023/01/29 01:23:50;;;;;;;20.65;7.68;;;-0.50;99.90;;;;;;5048594;28;20036;-62
2023/01/29 01:26:19;;;;;;;16.52;7.15;;;-0.40;99.90;;;;;;5041118;28;20517;-64
2023/01/29 01:28:44;;;;;;;19.60;8.10;;;-0.40;99.90;;;;;;5042715;28;20080;-63
2023/01/29 01:31:12;;;;;;;20.90;8.35;;;-0.40;99.90;;;;;;5041005;28;20069;-63
2023/01/29 01:33:39;;;;;;;16.95;7.78;;;-0.40;99.90;;;;;;5062861;28;20075;-63
2023/01/29 01:36:08;;;;;;;16.45;7.10;;;-0.50;99.90;;;;;;5057430;28;20032;-62
2023/01/29 01:38:43;;;;;;;20.58;7.60;;;-0.50;99.90;;;;;;5029439;28;20083;-62
2023/01/29 01:41:10;;;;;;;19.48;7.60;;;-0.40;99.90;;;;;;5041097;28;20479;-63
2023/01/29 01:43:56;;;;;;;17.90;8.13;;;-0.40;99.90;;;;;;5050707;28;20528;-63
2023/01/29 01:46:23;;;;;;;18.98;8.05;;;-0.40;99.90;;;;;;5031529;28;20033;-63
2023/01/29 01:49:00;;;;;;;17.25;7.75;;;-0.50;99.90;;;;;;5047778;28;20021;-63
2023/01/29 01:51:29;;;;;;;16.45;7.40;;;-0.50;99.90;;;;;;5040441;28;20112;-63
2023/01/29 01:54:19;;;;;;;17.55;7.65;;;-0.60;99.90;;;;;;5041803;28;20683;-63
2023/01/29 01:56:51;;;;;;;17.77;7.35;;;-0.70;99.90;;;;;;5041918;28;20115;-64
2023/01/29 01:59:18;;;;;;;16.50;7.93;;;-0.60;99.90;;;;;;5045977;28;20119;-63
2023/01/29 02:01:51;;;;;;;18.63;7.22;;;-0.50;99.90;;;;;;5045983;28;20033;-63
2023/01/29 02:10:06;;;;;;;19.40;7.93;;;-0.50;99.90;;;;;;5065344;28;20098;-63
2023/01/29 02:12:32;;;;;;;17.17;7.07;;;-0.50;99.90;;;;;;5057867;28;20550;-63
2023/01/29 02:14:59;;;;;;;22.55;7.85;;;-0.60;99.90;;;;;;5055100;28;20034;-63
2023/01/29 02:17:24;;;;;;;17.90;7.63;;;-0.60;99.90;;;;;;5053621;28;20043;-63
2023/01/29 02:20:14;;;;;;;16.85;7.43;;;-0.50;99.90;;;;;;5066482;28;20124;-63
2023/01/29 02:23:13;;;;;;;16.27;7.53;;;-0.50;99.90;;;;;;5054087;28;20035;-63
2023/01/29 02:26:03;;;;;;;17.05;7.30;;;-0.50;99.90;;;;;;5030023;28;20030;-63
2023/01/29 02:28:40;;;;;;;18.27;8.02;;;-0.50;99.90;;;;;;5051687;28;20052;-63
2023/01/29 02:31:24;;;;;;;19.67;8.30;;;-0.50;99.90;;;;;;5042543;28;20033;-63
2023/01/29 02:34:21;;;;;;;19.27;7.90;;;-0.50;99.90;;;;;;5032247;28;20033;-63
2023/01/29 02:37:08;;;;;;;19.70;8.15;;;-0.40;99.90;;;;;;5038726;28;20031;-64
2023/01/29 02:40:16;;;;;;;17.50;7.00;;;-0.40;99.90;;;;;;5037714;28;20037;-63
2023/01/29 02:43:06;;;;;;;17.83;7.22;;;-0.40;99.90;;;;;;5023044;28;20461;-62
2023/01/29 02:45:34;;;;;;;18.20;7.55;;;-0.40;99.90;;;;;;5038991;28;20090;-63
2023/01/29 02:48:01;;;;;;;18.95;7.28;;;-0.40;99.90;;;;;;5046538;28;20036;-63
2023/01/29 02:50:45;;;;;;;19.27;8.10;;;-0.40;99.90;;;;;;5026784;28;20041;-63
2023/01/29 02:53:15;;;;;;;18.65;7.47;;;-0.40;99.90;;;;;;5047644;28;20036;-62
2023/01/29 02:55:55;;;;;;;18.92;7.95;;;-0.50;99.90;;;;;;5033123;28;20034;-63
2023/01/29 02:58:37;;;;;;;18.90;7.80;;;-0.50;99.90;;;;;;5042438;28;20044;-62
2023/01/29 03:01:10;;;;;;;17.67;7.55;;;-0.40;99.90;;;;;;5046824;28;20485;-63
2023/01/29 03:03:41;;;;;;;20.58;8.18;;;-0.40;99.90;;;;;;5046933;28;20478;-63
2023/01/29 03:06:27;;;;;;;15.65;7.00;;;-0.40;99.90;;;;;;5048973;28;20037;-62
2023/01/29 03:09:00;;;;;;;17.27;7.25;;;-0.40;99.90;;;;;;5044559;28;20033;-63
2023/01/29 03:11:37;;;;;;;14.77;7.10;;;-0.40;99.90;;;;;;5030054;28;20033;-63
2023/01/29 03:14:12;;;;;;;17.83;7.78;;;-0.50;99.90;;;;;;5045766;28;20033;-63
2023/01/29 03:16:49;;;;;;;16.83;7.50;;;-0.50;99.90;;;;;;5032533;28;20040;-62
2023/01/29 03:19:35;;;;;;;17.98;7.63;;;-0.50;99.90;;;;;;5030727;28;20025;-63
2023/01/29 03:22:03;;;;;;;19.67;7.70;;;-0.50;99.90;;;;;;5033250;28;20029;-63
2023/01/29 03:33:17;;;;;;;18.40;7.10;;;-0.60;99.90;;;;;;5050639;28;20036;-63
2023/01/29 03:35:52;;;;;;;17.90;7.40;;;-0.50;99.90;;;;;;5034911;28;20390;-64
2023/01/29 03:38:19;;;;;;;19.63;7.90;;;-0.50;99.90;;;;;;5048187;28;20082;-64
2023/01/29 03:41:45;;;;;;;17.02;7.38;;;-0.50;99.90;;;;;;5034933;28;20057;-63
2023/01/29 03:44:39;;;;;;;17.75;7.30;;;-0.50;99.90;;;;;;5008686;28;20045;-63
2023/01/29 03:47:21;;;;;;;18.58;7.72;;;-0.40;99.90;;;;;;5024086;28;20141;-63
2023/01/29 03:50:13;;;;;;;19.42;6.78;;;-0.40;99.90;;;;;;5031211;28;20033;-63
2023/01/29 03:52:46;;;;;;;12.52;6.32;;;-0.40;99.90;;;;;;5029681;28;20041;-63
2023/01/29 03:55:30;;;;;;;13.73;6.20;;;-0.40;99.90;;;;;;5032861;28;20049;-63
2023/01/29 03:58:18;;;;;;;14.55;6.40;;;-0.50;99.90;;;;;;5047604;28;20390;-63
2023/01/29 04:00:53;;;;;;;15.50;7.18;;;-0.50;99.90;;;;;;5043899;28;20068;-62
2023/01/29 04:03:32;;;;;;;18.38;7.10;;;-0.50;99.90;;;;;;5046636;28;20025;-63
2023/01/29 04:06:21;;;;;;;17.88;7.28;;;-0.50;99.90;;;;;;5030513;28;20060;-63
2023/01/29 04:09:05;;;;;;;17.27;7.03;;;-0.60;99.90;;;;;;5050137;28;20029;-63
2023/01/29 04:11:34;;;;;;;17.98;7.30;;;-0.60;99.90;;;;;;5029693;28;20049;-63
2023/01/29 04:13:59;;;;;;;16.88;6.82;;;-0.60;99.90;;;;;;5040448;28;20025;-62
2023/01/29 04:16:30;;;;;;;16.02;7.00;;;-0.60;99.90;;;;;;5047680;28;20043;-63
2023/01/29 04:18:56;;;;;;;15.90;6.43;;;-0.60;99.90;;;;;;5047644;28;20790;-63
2023/01/29 04:21:22;;;;;;;15.40;6.20;;;-0.70;99.90;;;;;;5042076;28;20044;-63
2023/01/29 04:23:47;;;;;;;17.40;7.10;;;-0.70;99.90;;;;;;5046417;28;20029;-64
2023/01/29 04:26:39;;;;;;;15.95;6.88;;;-0.70;99.90;;;;;;5039855;28;20029;-62
2023/01/29 04:29:33;;;;;;;15.40;6.43;;;-0.60;99.90;;;;;;5047645;28;20044;-63
2023/01/29 04:32:27;;;;;;;16.05;6.90;;;-0.60;99.90;;;;;;5038916;28;20079;-63
2023/01/29 04:34:55;;;;;;;18.27;7.30;;;-0.60;99.90;;;;;;5029359;28;20044;-62
2023/01/29 04:37:36;;;;;;;17.42;7.03;;;-0.60;99.90;;;;;;5028981;28;20557;-63
2023/01/29 04:40:20;;;;;;;15.35;6.72;;;-0.60;99.90;;;;;;5029463;28;20112;-62
2023/01/29 04:42:53;;;;;;;18.27;6.95;;;-0.60;99.90;;;;;;5029352;28;20033;-62
2023/01/29 04:45:25;;;;;;;19.33;7.10;;;-0.50;99.90;;;;;;5042407;28;20025;-64
2023/01/29 04:47:54;;;;;;;17.17;7.07;;;-0.50;99.90;;;;;;5049437;28;20036;-63
2023/01/29 04:50:30;;;;;;;18.08;7.50;;;-0.50;99.90;;;;;;5036401;28;20073;-63
2023/01/29 04:53:17;;;;;;;15.13;6.88;;;-0.50;99.90;;;;;;5039806;28;20751;-63
2023/01/29 04:55:56;;;;;;;18.10;6.78;;;-0.60;99.90;;;;;;5047779;28;20104;-63
2023/01/29 04:58:39;;;;;;;16.90;6.63;;;-0.70;99.90;;;;;;5027914;28;20037;-63
2023/01/29 05:01:09;;;;;;;17.90;7.25;;;-0.80;99.90;;;;;;5037109;28;20040;-62
2023/01/29 05:03:39;;;;;;;17.25;7.35;;;-0.90;99.90;;;;;;5039560;28;20040;-63
2023/01/29 05:06:06;;;;;;;16.50;7.07;;;-0.90;99.90;;;;;;5041576;28;20381;-64
2023/01/29 05:08:35;;;;;;;21.10;7.68;;;-0.90;99.90;;;;;;5040413;28;20028;-63
2023/01/29 05:11:00;;;;;;;18.77;7.50;;;-0.90;99.90;;;;;;5058091;28;20671;-63
2023/01/29 05:13:28;;;;;;;18.38;7.75;;;-0.80;99.90;;;;;;5046929;28;20032;-62
2023/01/29 05:16:06;;;;;;;15.82;7.13;;;-0.80;99.90;;;;;;5048493;28;20025;-62
2023/01/29 05:18:33;;;;;;;19.67;7.93;;;-0.70;99.90;;;;;;5042132;28;20069;-63
2023/01/29 05:21:03;;;;;;;20.30;7.72;;;-0.70;99.90;;;;;;5031476;28;20122;-62
2023/01/29 05:23:29;;;;;;;17.65;7.32;;;-0.70;99.90;;;;;;5040981;28;20398;-63
2023/01/29 05:25:56;;;;;;;21.48;8.02;;;-0.60;99.90;;;;;;5027681;28;20116;-62
2023/01/29 05:28:22;;;;;;;17.20;7.47;;;-0.60;99.90;;;;;;5044731;28;20138;-62
2023/01/29 05:30:53;;;;;;;16.60;7.05;;;-0.60;99.90;;;;;;5047480;28;20541;-62
2023/01/29 05:33:30;;;;;;;16.50;7.45;;;-0.60;99.90;;;;;;5048561;28;20489;-62
2023/01/29 05:35:58;;;;;;;18.73;8.07;;;-0.60;99.90;;;;;;5048716;28;20040;-62
2023/01/29 05:38:24;;;;;;;18.38;7.30;;;-0.60;99.90;;;;;;5047544;28;20036;-63
2023/01/29 05:40:50;;;;;;;19.15;7.90;;;-0.60;99.90;;;;;;5044580;28;20039;-62
2023/01/29 05:43:18;;;;;;;16.95;7.00;;;-0.50;99.90;;;;;;5049458;28;20413;-62
2023/01/29 05:45:55;;;;;;;19.40;7.72;;;-0.60;99.90;;;;;;5046445;28;20021;-63
2023/01/29 05:48:21;;;;;;;18.48;7.25;;;-0.60;99.90;;;;;;5064586;28;20040;-61
2023/01/29 05:50:47;;;;;;;20.65;7.78;;;-0.50;99.90;;;;;;5049238;28;20029;-62
2023/01/29 05:53:13;;;;;;;19.83;7.63;;;-0.60;99.90;;;;;;5048987;28;20078;-63
2023/01/29 05:55:39;;;;;;;17.80;7.65;;;-0.70;99.90;;;;;;5047752;28;20159;-62
2023/01/29 05:58:05;;;;;;;18.73;7.68;;;-0.80;99.90;;;;;;5048398;28;20447;-63
2023/01/29 06:00:30;;;;;;;19.63;7.68;;;-0.90;99.90;;;;;;5049140;28;20054;-63
2023/01/29 06:02:57;;;;;;;22.00;8.73;;;-0.90;99.90;;;;;;5065983;28;20064;-62
2023/01/29 06:05:23;;;;;;;20.63;7.57;;;-1.00;99.90;;;;;;5068193;28;20056;-63
2023/01/29 06:07:48;;;;;;;20.55;7.90;;;-1.10;99.90;;;;;;5064109;28;20137;-62
2023/01/29 06:10:16;;;;;;;23.55;8.07;;;-1.10;99.90;;;;;;5046000;28;20025;-62
2023/01/29 06:12:43;;;;;;;19.65;7.72;;;-1.10;99.90;;;;;;5050905;28;20133;-62
2023/01/29 06:15:10;;;;;;;17.40;7.75;;;-1.10;99.90;;;;;;5047406;28;20032;-62
2023/01/29 06:17:38;;;;;;;22.25;8.35;;;-1.10;99.90;;;;;;5047053;28;20496;-63
2023/01/29 06:20:05;;;;;;;20.85;7.22;;;-1.10;99.90;;;;;;5053917;28;20021;-61
2023/01/29 06:22:32;;;;;;;17.67;6.90;;;-1.10;99.90;;;;;;5041177;28;20025;-63
2023/01/29 06:24:57;;;;;;;19.67;8.10;;;-1.00;99.90;;;;;;5053138;28;20116;-63
2023/01/29 06:27:23;;;;;;;19.27;7.47;;;-1.00;99.90;;;;;;5048832;28;20124;-63
2023/01/29 06:29:49;;;;;;;21.88;8.77;;;-1.00;99.90;;;;;;5041316;28;20033;-62
2023/01/29 06:32:17;;;;;;;21.75;8.07;;;-1.00;99.90;;;;;;5046829;28;20028;-62
2023/01/29 06:34:43;;;;;;;20.90;7.97;;;-1.00;99.90;;;;;;5047134;28;20099;-63
2023/01/29 06:37:08;;;;;;;18.90;7.63;;;-1.00;99.90;;;;;;5048072;28;20021;-63
2023/01/29 06:39:34;;;;;;;20.67;7.72;;;-0.90;99.90;;;;;;5049811;28;20025;-63
2023/01/29 06:42:00;;;;;;;21.90;8.30;;;-1.00;99.90;;;;;;5050424;28;20495;-63
2023/01/29 06:44:25;;;;;;;21.67;8.27;;;-1.00;99.90;;;;;;5050249;28;20044;-63
2023/01/29 06:46:54;;;;;;;19.17;7.68;;;-1.00;99.90;;;;;;5050264;28;20051;-63
2023/01/29 06:49:22;;;;;;;20.70;8.13;;;-0.90;99.90;;;;;;5050817;28;20064;-62
2023/01/29 06:51:48;;;;;;;21.30;8.85;;;-0.90;99.90;;;;;;5033297;28;20048;-63
2023/01/29 06:54:14;;;;;;;22.80;8.68;;;-0.90;99.90;;;;;;5051538;28;20017;-62
2023/01/29 06:56:39;;;;;;;20.90;8.02;;;-0.80;99.90;;;;;;5048664;28;20056;-62
2023/01/29 06:59:05;;;;;;;21.70;8.35;;;-0.80;99.90;;;;;;5067810;28;20040;-63
2023/01/29 07:01:30;;;;;;;19.45;7.88;;;-0.80;99.90;;;;;;5049310;28;20117;-63
2023/01/29 07:03:59;;;;;;;21.13;8.15;;;-0.80;99.90;;;;;;5051271;28;20040;-63
2023/01/29 07:06:28;;;;;;;19.73;8.23;;;-1.00;99.90;;;;;;5049152;28;20033;-61
2023/01/29 07:08:54;;;;;;;23.02;8.73;;;-1.00;99.90;;;;;;5046709;28;20056;-62
2023/01/29 07:11:19;;;;;;;21.40;7.80;;;-1.00;99.90;;;;;;5049165;28;20116;-63
2023/01/29 07:13:45;;;;;;;22.13;8.02;;;-1.10;99.90;;;;;;5049781;28;20649;-63
2023/01/29 07:16:11;;;;;;;22.40;8.68;;;-1.10;99.90;;;;;;5049904;28;20039;-62
2023/01/29 07:18:36;;;;;;;24.65;8.98;;;-1.10;99.90;;;;;;5050250;28;20033;-62
2023/01/29 07:21:05;;;;;;;19.70;8.23;;;-1.10;99.90;;;;;;5047732;28;20060;-62
2023/01/29 07:23:32;;;;;;;23.08;8.43;;;-1.10;99.90;;;;;;5056904;28;20064;-62
2023/01/29 07:26:01;;;;;;;21.58;8.70;;;-1.10;99.90;;;;;;5040964;28;20112;-62
2023/01/29 07:28:27;;;;;;;21.65;7.97;;;-1.10;99.90;;;;;;5043512;28;20051;-63
2023/01/29 07:30:59;;;;;;;20.85;8.65;;;-1.10;99.90;;;;;;5041223;28;20401;-62
2023/01/29 07:33:25;;;;;;;21.15;8.70;;;-1.10;99.90;;;;;;5045450;28;20488;-62
2023/01/29 07:35:51;;;;;;;23.75;8.60;;;-1.00;99.90;;;;;;5048133;28;20107;-62
2023/01/29 07:38:17;;;;;;;21.23;8.48;;;-1.00;99.90;;;;;;5049602;28;20040;-62
2023/01/29 07:40:43;;;;;;;20.77;8.23;;;-0.90;99.90;;;;;;5050992;28;20071;-63
2023/01/29 07:43:09;;;;;;;21.92;9.15;;;-0.80;99.90;;;;;;5046744;28;20029;-63
2023/01/29 07:45:36;;;;;;;20.38;8.32;;;-0.80;99.90;;;;;;5034079;28;20029;-63
2023/01/29 07:48:03;;;;;;;21.27;8.05;;;-0.80;99.90;;;;;;5052308;28;20035;-62
2023/01/29 07:50:30;;;;;;;24.08;8.85;;;-0.70;99.90;;;;;;5038062;28;20037;-63
2023/01/29 07:52:56;;;;;;;21.20;8.15;;;-0.70;99.90;;;;;;5048843;28;20033;-62
2023/01/29 07:55:22;;;;;;;23.58;8.90;;;-0.70;99.90;;;;;;5050198;28;20036;-62
2023/01/29 07:57:55;;;;;;;21.65;8.57;;;-0.70;99.90;;;;;;5048963;28;20112;-64
2023/01/29 08:00:21;;;;;;;22.85;8.63;;;-0.80;99.90;;;;;;5050355;28;20090;-63
2023/01/29 08:02:46;;;;;;;20.98;8.10;;;-0.80;99.90;;;;;;5048512;28;20541;-62
2023/01/29 08:05:12;;;;;;;23.83;8.40;;;-0.90;99.90;;;;;;5045936;28;20037;-63
2023/01/29 08:07:38;;;;;;;22.67;8.68;;;-0.90;99.90;;;;;;5049581;28;20033;-62
2023/01/29 08:10:04;;;;;;;21.20;8.45;;;-0.80;99.90;;;;;;5048941;28;20033;-62
2023/01/29 08:12:30;;;;;;;19.55;8.18;;;-0.80;99.90;;;;;;5048525;28;20072;-64
2023/01/29 08:14:55;;;;;;;20.73;8.30;;;-0.70;99.90;;;;;;5047432;28;20075;-62
2023/01/29 08:17:21;;;;;;;22.55;8.75;;;-0.70;99.90;;;;;;5046856;28;20058;-63
2023/01/29 08:19:46;;;;;;;19.67;7.95;;;-0.70;99.90;;;;;;5045483;28;20135;-62
2023/01/29 08:22:14;;;;;;;22.27;8.23;;;-0.70;99.90;;;;;;5043531;28;20500;-61
2023/01/29 08:24:39;;;;;;;21.25;8.00;;;-0.80;99.90;;;;;;5048048;28;20029;-63
2023/01/29 08:27:05;;;;;;;18.20;7.53;;;-0.70;99.90;;;;;;5049811;28;20075;-62
2023/01/29 08:29:30;;;;;;;19.08;7.53;;;-0.70;99.90;;;;;;5048426;28;20482;-63
2023/01/29 08:31:56;;;;;;;19.25;7.70;;;-0.60;99.90;;;;;;5049905;28;20029;-63
2023/01/29 08:34:22;;;;;;;19.10;7.95;;;-0.60;99.90;;;;;;5049591;28;20028;-62
2023/01/29 08:36:47;;;;;;;18.77;7.60;;;-0.60;99.90;;;;;;5047694;28;20080;-63
2023/01/29 08:39:13;;;;;;;18.08;7.10;;;-0.50;99.90;;;;;;5049549;28;20091;-63
2023/01/29 08:41:39;;;;;;;17.40;7.43;;;-0.50;99.90;;;;;;5048826;28;20033;-63
2023/01/29 08:44:04;;;;;;;18.98;7.53;;;-0.50;99.90;;;;;;5049723;28;20021;-63
2023/01/29 08:46:30;;;;;;;17.52;7.28;;;-0.50;99.90;;;;;;5049042;28;20033;-64
2023/01/29 08:48:56;;;;;;;18.88;7.32;;;-0.40;99.90;;;;;;5049077;28;20037;-63
2023/01/29 08:51:24;;;;;;;18.90;7.15;;;-0.30;99.90;;;;;;5045971;28;20041;-62
2023/01/29 08:53:50;;;;;;;17.33;7.47;;;-0.30;99.90;;;;;;5040323;28;20038;-63
2023/01/29 08:56:15;;;;;;;16.30;6.93;;;-0.30;99.90;;;;;;5045522;28;20398;-62
2023/01/29 08:58:41;;;;;;;18.98;7.82;;;-0.20;99.90;;;;;;5047595;28;20056;-63
2023/01/29 09:01:09;;;;;;;19.45;7.97;;;-0.20;99.90;;;;;;5049287;28;20537;-62
2023/01/29 09:03:35;;;;;;;43.92;16.40;;;-0.10;99.90;;;;;;5046654;28;20413;-63
2023/01/29 09:06:01;;;;;;;18.52;8.40;;;-0.10;99.90;;;;;;5048814;28;20040;-63
2023/01/29 09:08:27;;;;;;;17.10;7.15;;;-0.20;99.90;;;;;;5048076;28;20032;-63
2023/01/29 09:10:52;;;;;;;19.73;7.72;;;-0.20;99.90;;;;;;5046956;28;20033;-63
2023/01/29 09:13:18;;;;;;;17.98;7.80;;;-0.30;99.90;;;;;;5056500;28;20075;-63
2023/01/29 09:15:44;;;;;;;18.90;7.25;;;-0.30;99.90;;;;;;5047845;28;20014;-63
2023/01/29 09:18:09;;;;;;;17.95;7.35;;;-0.40;99.90;;;;;;5049023;28;20025;-62
2023/01/29 09:20:37;;;;;;;19.20;7.70;;;-0.50;99.90;;;;;;5047048;28;20037;-63
2023/01/29 09:23:09;;;;;;;18.88;7.32;;;-0.40;99.90;;;;;;5047956;28;20056;-63
2023/01/29 09:25:36;;;;;;;21.55;7.85;;;-0.30;99.90;;;;;;5048275;28;20037;-63
2023/01/29 09:28:01;;;;;;;18.23;7.28;;;-0.30;99.90;;;;;;5047488;28;20136;-63
2023/01/29 09:30:27;;;;;;;16.80;7.05;;;-0.30;99.90;;;;;;5046394;28;20159;-62
2023/01/29 09:32:54;;;;;;;17.48;7.30;;;-0.30;99.90;;;;;;5042464;28;20094;-63
2023/01/29 09:35:21;;;;;;;20.40;8.00;;;-0.20;99.90;;;;;;5041920;28;20410;-63
2023/01/29 09:37:48;;;;;;;19.00;8.07;;;-0.20;99.90;;;;;;5047810;28;20021;-62
2023/01/29 09:40:37;;;;;;;18.95;7.80;;;-0.20;99.90;;;;;;5035652;28;20562;-63
2023/01/29 09:43:15;;;;;;;21.35;8.13;;;-0.20;99.90;;;;;;5031575;28;20033;-62
2023/01/29 09:45:57;;;;;;;20.85;8.05;;;-0.20;99.90;;;;;;5046062;28;20033;-62
2023/01/29 09:48:27;;;;;;;18.90;7.43;;;-0.30;99.90;;;;;;5051563;28;20676;-62
2023/01/29 09:50:57;;;;;;;23.35;8.27;;;-0.40;99.90;;;;;;5045742;28;20028;-64
2023/01/29 09:53:35;;;;;;;21.13;7.88;;;-0.40;99.90;;;;;;5043942;28;20067;-63
2023/01/29 09:56:10;;;;;;;23.10;9.00;;;-0.40;99.90;;;;;;5055249;28;20036;-63
2023/01/29 09:58:41;;;;;;;22.85;8.73;;;-0.40;99.90;;;;;;5054944;28;20028;-63
2023/01/29 10:01:11;;;;;;;20.70;8.15;;;-0.40;99.90;;;;;;5055959;28;20086;-63
2023/01/29 10:03:45;;;;;;;23.57;8.50;;;-0.30;99.90;;;;;;5028601;28;20384;-63
2023/01/29 10:06:27;;;;;;;22.00;8.45;;;-0.30;99.90;;;;;;5028846;28;20276;-62
2023/01/29 10:09:20;;;;;;;19.75;7.63;;;-0.30;99.90;;;;;;5026314;28;20057;-63
2023/01/29 10:11:52;;;;;;;18.25;7.78;;;-0.40;99.90;;;;;;5044470;28;20045;-63
2023/01/29 10:14:48;;;;;;;20.17;8.15;;;-0.30;99.90;;;;;;5047635;28;20056;-63
2023/01/29 10:17:29;;;;;;;19.55;7.75;;;-0.20;99.90;;;;;;5033781;28;20108;-64
2023/01/29 10:19:54;;;;;;;;;;;-0.20;99.90;;;;;;5031634;28;20135;-63
2023/01/29 10:22:26;;;;;;;19.85;8.15;;;-0.10;99.90;;;;;;5048440;28;20349;-63
2023/01/29 10:25:05;;;;;;;20.77;8.63;;;0.00;99.90;;;;;;5051615;28;20417;-63
2023/01/29 10:27:37;;;;;;;22.38;8.82;;;0.10;99.90;;;;;;5051770;28;20517;-62
2023/01/29 10:30:08;;;;;;;25.98;9.40;;;0.10;99.90;;;;;;5049912;28;20061;-62
2023/01/29 10:32:36;;;;;;;26.42;9.73;;;0.00;99.90;;;;;;5052141;28;20032;-63
2023/01/29 10:35:18;;;;;;;23.20;8.57;;;-0.10;99.90;;;;;;5051591;28;20052;-63
2023/01/29 10:37:44;;;;;;;21.63;9.30;;;-0.10;99.90;;;;;;5051330;28;20021;-62
2023/01/29 10:40:21;;;;;;;25.88;9.93;;;0.00;99.90;;;;;;5051765;28;20033;-62
2023/01/29 10:43:14;;;;;;;21.08;9.18;;;0.10;99.90;;;;;;5051583;28;20462;-62
2023/01/29 10:46:09;;;;;;;22.50;8.93;;;0.20;99.90;;;;;;5051311;28;20025;-62
2023/01/29 10:48:54;;;;;;;21.85;8.98;;;0.30;99.90;;;;;;5046662;28;20478;-62
2023/01/29 10:51:42;;;;;;;23.58;9.23;;;0.20;99.90;;;;;;5043741;28;20620;-62
2023/01/29 10:54:14;;;;;;;22.27;8.88;;;0.20;99.90;;;;;;5050158;28;20418;-62
2023/01/29 10:57:06;;;;;;;26.60;10.23;;;0.20;99.90;;;;;;5046823;28;20037;-65
2023/01/29 10:59:58;;;;;;;23.50;9.15;;;0.10;99.90;;;;;;5050042;28;20071;-62
2023/01/29 11:02:24;;;;;;;25.70;9.50;;;0.10;99.90;;;;;;5036426;28;20030;-61
2023/01/29 11:04:49;;;;;;;25.83;9.15;;;0.00;99.90;;;;;;5035799;28;20363;-62
2023/01/29 11:07:18;;;;;;;23.63;9.40;;;0.00;99.90;;;;;;5049731;28;20071;-62
2023/01/29 11:09:55;;;;;;;26.20;9.57;;;-0.10;99.90;;;;;;5047712;28;20037;-63
2023/01/29 11:12:29;;;;;;;23.33;9.45;;;-0.10;99.90;;;;;;5045280;28;20035;-62
2023/01/29 11:15:23;;;;;;;24.30;9.15;;;0.00;99.90;;;;;;5050339;28;20025;-62
2023/01/29 11:18:15;;;;;;;24.88;9.45;;;0.00;99.90;;;;;;5036573;28;20033;-63
2023/01/29 11:20:43;;;;;;;27.70;9.95;;;-0.10;99.90;;;;;;5048713;28;20036;-64
2023/01/29 11:23:26;;;;;;;27.52;10.48;;;0.00;99.90;;;;;;5048101;28;20404;-62
2023/01/29 11:25:54;;;;;;;24.90;9.48;;;0.00;99.90;;;;;;5038326;28;20090;-64
2023/01/29 11:28:36;;;;;;;26.27;10.02;;;0.00;99.90;;;;;;5041867;28;20041;-63
2023/01/29 11:31:02;;;;;;;24.85;9.43;;;0.00;99.90;;;;;;5047894;28;20033;-62
2023/01/29 11:33:29;;;;;;;23.90;9.38;;;0.10;99.90;;;;;;5049604;28;20150;-62
2023/01/29 11:35:56;;;;;;;25.05;10.13;;;0.20;99.90;;;;;;5050401;28;20029;-62
2023/01/29 11:38:24;;;;;;;25.85;9.43;;;0.20;99.90;;;;;;5048908;28;20413;-62
2023/01/29 11:40:51;;;;;;;26.33;9.98;;;0.30;99.90;;;;;;5050196;28;20033;-64
2023/01/29 11:43:29;;;;;;;25.42;9.30;;;0.30;99.90;;;;;;5043929;28;20029;-63
2023/01/29 11:45:59;;;;;;;25.25;9.50;;;0.20;99.90;;;;;;5048284;28;20037;-63
2023/01/29 11:48:50;;;;;;;25.50;9.77;;;0.10;99.90;;;;;;5050520;28;20027;-62
2023/01/29 11:51:28;;;;;;;27.38;9.93;;;0.20;99.90;;;;;;5041295;28;20055;-63
2023/01/29 11:54:03;;;;;;;26.75;9.93;;;0.20;99.90;;;;;;5048982;28;20041;-63
2023/01/29 11:56:34;;;;;;;25.33;9.93;;;0.30;99.90;;;;;;5045400;28;20482;-62
2023/01/29 11:59:03;;;;;;;26.42;9.90;;;0.40;99.90;;;;;;5048857;28;20029;-62
2023/01/29 12:01:37;;;;;;;24.73;9.40;;;0.50;99.90;;;;;;5049463;28;20037;-62
2023/01/29 12:04:18;;;;;;;27.35;10.18;;;0.40;99.90;;;;;;5049207;28;20646;-63
2023/01/29 12:06:47;;;;;;;28.00;9.50;;;0.40;99.90;;;;;;5040468;28;20053;-64
2023/01/29 12:09:20;;;;;;;23.40;9.05;;;0.40;99.90;;;;;;5050551;28;20032;-62
2023/01/29 12:11:45;;;;;;;24.63;9.48;;;0.30;99.90;;;;;;5049248;28;20033;-64
2023/01/29 12:14:34;;;;;;;25.75;9.32;;;0.20;99.90;;;;;;5050167;28;20037;-62
2023/01/29 12:17:06;;;;;;;26.60;9.68;;;0.20;99.90;;;;;;5048343;28;20033;-62
2023/01/29 12:19:44;;;;;;;28.17;9.40;;;0.20;99.90;;;;;;5050819;28;20033;-62
2023/01/29 12:22:20;;;;;;;29.25;10.35;;;0.20;99.90;;;;;;5049436;28;20036;-63
2023/01/29 12:25:04;;;;;;;23.40;8.90;;;0.20;99.90;;;;;;5048768;28;20025;-62
2023/01/29 12:27:47;;;;;;;31.60;10.18;;;0.30;99.90;;;;;;5049076;28;20061;-62
2023/01/29 12:30:18;;;;;;;25.90;9.15;;;0.30;99.90;;;;;;5047038;28;20033;-63
2023/01/29 12:33:08;;;;;;;23.30;9.43;;;0.30;99.90;;;;;;5048747;28;20032;-65
2023/01/29 12:35:42;;;;;;;24.50;9.20;;;0.30;99.90;;;;;;5041395;28;20104;-63
2023/01/29 12:38:12;;;;;;;22.58;8.27;;;0.40;99.90;;;;;;5053733;28;20086;-62
2023/01/29 12:40:54;;;;;;;24.23;9.32;;;0.40;99.90;;;;;;5030816;28;20494;-62
2023/01/29 12:43:37;;;;;;;20.98;8.70;;;0.40;99.90;;;;;;5029438;28;20438;-63
2023/01/29 12:46:08;;;;;;;25.33;9.80;;;0.50;99.90;;;;;;5031403;28;20029;-63
2023/01/29 12:48:38;;;;;;;23.33;9.25;;;0.60;99.90;;;;;;5049706;28;20386;-61
2023/01/29 12:51:12;;;;;;;25.00;9.65;;;0.50;99.90;;;;;;5046992;28;20028;-63
2023/01/29 12:53:55;;;;;;;19.92;8.07;;;0.60;99.90;;;;;;5047796;28;20068;-62
2023/01/29 12:56:40;;;;;;;22.60;8.48;;;0.70;99.90;;;;;;5045188;28;20389;-62
2023/01/29 12:59:30;;;;;;;21.17;8.68;;;0.60;99.90;;;;;;5047706;28;20028;-62
2023/01/29 13:02:04;;;;;;;20.30;7.93;;;0.60;99.90;;;;;;5044476;28;20045;-63
2023/01/29 13:04:41;;;;;;;22.63;8.70;;;0.70;99.90;;;;;;5049252;28;20033;-63
2023/01/29 13:07:13;;;;;;;21.45;8.40;;;0.50;99.90;;;;;;5043826;28;20063;-63
2023/01/29 13:09:43;;;;;;;20.13;8.10;;;0.60;99.90;;;;;;5067277;28;20064;-62
2023/01/29 13:12:21;;;;;;;18.33;7.97;;;0.60;99.90;;;;;;5044495;28;20037;-64
2023/01/29 13:15:22;;;;;;;26.90;8.75;;;0.60;99.90;;;;;;5048807;28;20032;-62
2023/01/29 13:18:15;;;;;;;20.70;7.82;;;0.50;99.90;;;;;;5045679;28;20421;-63
2023/01/29 13:20:47;;;;;;;23.70;8.85;;;0.50;99.90;;;;;;5048972;28;20039;-62
2023/01/29 13:23:21;;;;;;;19.15;8.32;;;0.60;99.90;;;;;;5046447;28;20036;-62
2023/01/29 13:25:51;;;;;;;19.15;8.60;;;0.70;99.90;;;;;;5048539;28;20029;-65
2023/01/29 13:28:21;;;;;;;16.40;6.03;;;0.90;99.90;;;;;;5031271;28;20120;-63